METAR Data
IDs: Format: Raw Decoded Include TAF

Data at: 1444 UTC 10 Aug 2022

KPTV 101356Z AUTO 24004KT 10SM CLR 19/14 A3005 RMK AO2 SLP171 T01940139
KPTV 101256Z AUTO 24004KT 10SM CLR 19/13 A3002 RMK AO2 SLP163 T01890133
KPTV 101156Z AUTO 24004KT 10SM CLR 19/14 A3000 RMK AO2 SLP157 T01940139 10261 20194 53013
KPTV 101056Z AUTO 29004KT 10SM CLR 21/14 A2998 RMK AO2 SLP149 T02110139
KPTV 100956Z AUTO 31003KT 10SM CLR 23/15 A2997 RMK AO2 SLP144 T02280150
KPTV 100856Z AUTO 00000KT 10SM CLR 24/16 A2996 RMK AO2 SLP143 T02390156 51010
KPTV 100756Z AUTO 19004KT 10SM CLR 24/13 A2996 RMK AO2 SLP141 T02390128
KPTV 100656Z AUTO 21006KT 10SM CLR 25/16 A2995 RMK AO2 SLP138 T02500156 403670200
KPTV 100556Z AUTO 25003KT 10SM CLR 26/16 A2993 RMK AO2 SLP133 T02560161 10367 20256 53021
KPTV 100456Z AUTO 32007KT 10SM CLR 28/16 A2992 RMK AO2 SLP127 T02830156
KPTV 100356Z AUTO 30004KT 10SM CLR 30/14 A2989 RMK AO2 SLP118 T03000144
KPTV 100256Z AUTO 34004KT 10SM CLR 33/13 A2987 RMK AO2 SLP111 T03330133 53002
KPTV 100156Z AUTO 29007KT 10SM CLR 36/13 A2986 RMK AO2 SLP106 T03610133
KPTV 100056Z AUTO 31007KT 10SM CLR 37/13 A2985 RMK AO2 SLP104 T03670133
KPTV 092356Z AUTO 29008KT 10SM CLR 37/15 A2986 RMK AO2 SLP108 T03670150 10367 20283 56018
KPTV 092256Z AUTO 33007KT 10SM CLR 37/15 A2988 RMK AO2 SLP112 T03670150
KPTV 092156Z AUTO 29007KT 10SM CLR 35/14 A2990 RMK AO2 SLP119 T03500139
KPTV 092056Z AUTO 26008KT 10SM CLR 33/14 A2992 RMK AO2 SLP127 T03280139 58019
KPTV 091956Z AUTO VRB05KT 10SM CLR 32/14 A2994 RMK AO2 SLP133 T03170144
KPTV 091856Z AUTO 22005KT 10SM CLR 29/15 A2996 RMK AO2 SLP140 T02940150
KPTV 091756Z AUTO VRB05KT 10SM CLR 28/15 A2997 RMK AO2 SLP146 T02830150 10283 20200 51006
KPTV 091656Z AUTO 24005KT 10SM CLR 26/15 A2997 RMK AO2 SLP145 T02610150
KPTV 091556Z AUTO 21004KT 10SM CLR 23/14 A2997 RMK AO2 SLP145 T02280144
KPTV 091456Z AUTO 17003KT 10SM CLR 21/15 A2995 RMK AO2 SLP140 T02110150 51015
KPTV 091356Z AUTO 22005KT 8SM CLR 21/15 A2994 RMK AO2 SLP136 T02060150
KPTV 091256Z AUTO 19004KT 10SM CLR 21/16 A2992 RMK AO2 SLP128 T02060156
KPTV 091156Z AUTO 20003KT 10SM CLR 21/15 A2991 RMK AO2 SLP123 T02110150 10283 20211 53005
KPTV 091056Z AUTO 00000KT 10SM CLR 23/15 A2990 RMK AO2 SLP120 T02280150
KPTV 090956Z AUTO 29003KT 10SM CLR 23/16 A2989 RMK AO2 SLP117 T02330156
KPTV 090856Z AUTO 22003KT 10SM CLR 24/16 A2989 RMK AO2 SLP119 T02390156 58004
KPTV 090756Z AUTO 35003KT 10SM CLR 27/14 A2990 RMK AO2 SLP121 T02670144
KPTV 090656Z AUTO 32003KT 10SM CLR 28/15 A2991 RMK AO2 SLP123 T02780150 403610206
KPTV 090556Z AUTO 00000KT 10SM CLR 28/15 A2990 RMK AO2 SLP122 T02830150 10361 20278 50015
KPTV 090456Z AUTO 31003KT 10SM CLR 29/16 A2991 RMK AO2 SLP123 T02890156
KPTV 090356Z AUTO 27004KT 10SM CLR 30/15 A2988 RMK AO2 SLP114 T03000150
KPTV 090256Z AUTO 27005KT 10SM CLR 33/16 A2986 RMK AO2 SLP107 T03280156 53000